Time;durP1;ratioP1;P1;durP2;ratioP2;P2;SDS_P1;SDS_P2;PMS_P1;PMS_P2;Temp;Humidity;BMP_temperature;BMP_pressure;BME280_temperature;BME280_humidity;BME280_pressure;Samples;Min_cycle;Max_cycle;Signal;HPM_P1;HPM_P2
2023/12/22 00:02:09;;;;;;;0.70;0.70;;;0.30;99.90;;;;;;5052906;28;20434;-72
2023/12/22 00:05:26;;;;;;;0.80;0.80;;;0.30;99.90;;;;;;5060536;28;20231;-72
2023/12/22 00:07:52;;;;;;;0.60;0.60;;;0.40;99.90;;;;;;5026685;28;20647;-72
2023/12/22 00:10:18;;;;;;;1.27;1.23;;;0.40;99.90;;;;;;5090087;28;20620;-71
2023/12/22 00:12:43;;;;;;;0.68;0.68;;;0.40;99.90;;;;;;5112061;28;20191;-72
2023/12/22 00:15:09;;;;;;;0.70;0.70;;;0.40;99.90;;;;;;5112018;28;20682;-71
2023/12/22 00:17:35;;;;;;;0.70;0.70;;;0.40;99.90;;;;;;5112037;28;20195;-71
2023/12/22 00:20:02;;;;;;;0.75;0.75;;;0.40;99.90;;;;;;5112109;28;20202;-71
2023/12/22 00:22:29;;;;;;;0.70;0.70;;;0.40;99.90;;;;;;5078844;28;20250;-71
2023/12/22 00:24:55;;;;;;;0.73;0.73;;;0.40;99.90;;;;;;5089861;28;20191;-71
2023/12/22 00:27:20;;;;;;;0.60;0.60;;;0.40;99.90;;;;;;5091378;28;20200;-71
2023/12/22 00:29:49;;;;;;;0.75;0.75;;;0.40;99.90;;;;;;5094219;28;20208;-74
2023/12/22 00:32:15;;;;;;;0.60;0.60;;;0.40;99.90;;;;;;5093716;28;20195;-75
2023/12/22 00:34:58;;;;;;;0.70;0.70;;;0.40;99.90;;;;;;5093517;28;20184;-75
2023/12/22 00:37:24;;;;;;;0.60;0.60;;;0.40;99.90;;;;;;5091067;28;20566;-72
2023/12/22 00:39:49;;;;;;;0.73;0.73;;;0.50;99.90;;;;;;5091240;28;20196;-73
2023/12/22 00:42:15;;;;;;;0.80;0.80;;;0.40;99.90;;;;;;5091275;28;20200;-72
2023/12/22 00:44:40;;;;;;;0.80;0.80;;;0.50;99.90;;;;;;5091531;28;20228;-72
2023/12/22 00:47:06;;;;;;;1.00;1.00;;;0.50;99.90;;;;;;5091158;28;20223;-72
2023/12/22 00:49:32;;;;;;;0.70;0.70;;;0.50;99.90;;;;;;5072713;28;20204;-73
2023/12/22 00:52:50;;;;;;;0.57;0.57;;;0.40;99.90;;;;;;5072655;28;20663;-73
2023/12/22 00:55:16;;;;;;;0.70;0.70;;;0.40;99.90;;;;;;5092348;28;20196;-74
2023/12/22 00:57:44;;;;;;;0.70;0.70;;;0.40;99.90;;;;;;5090578;28;20188;-72
2023/12/22 01:02:57;;;;;;;0.70;0.70;;;0.30;99.90;;;;;;5073953;28;20219;-74
2023/12/22 01:06:14;;;;;;;0.60;0.60;;;0.30;99.90;;;;;;5090434;28;20228;-74
2023/12/22 01:08:41;;;;;;;0.82;0.82;;;0.30;99.90;;;;;;5092886;28;20207;-74
2023/12/22 01:11:07;;;;;;;0.68;0.68;;;0.30;99.90;;;;;;5111251;28;20231;-73
2023/12/22 01:13:51;;;;;;;0.80;0.80;;;0.20;99.90;;;;;;5112407;28;20238;-75
2023/12/22 01:16:19;;;;;;;0.60;0.60;;;0.20;99.90;;;;;;5113146;28;20198;-75
2023/12/22 01:18:45;;;;;;;0.70;0.70;;;0.20;99.90;;;;;;5070098;28;20207;-73
2023/12/22 01:21:10;;;;;;;0.80;0.80;;;0.10;99.90;;;;;;5054692;28;20201;-73
2023/12/22 01:23:36;;;;;;;0.75;0.75;;;0.10;99.90;;;;;;5052004;28;20243;-71
2023/12/22 01:26:02;;;;;;;0.60;0.60;;;0.10;99.90;;;;;;5053322;28;20676;-73
2023/12/22 01:28:27;;;;;;;0.63;0.63;;;0.10;99.90;;;;;;5069909;28;20988;-73
2023/12/22 01:30:53;;;;;;;0.73;0.73;;;0.10;99.90;;;;;;5070072;28;20204;-71
2023/12/22 01:33:19;;;;;;;0.88;0.88;;;0.10;99.90;;;;;;5084314;28;20199;-73
2023/12/22 01:35:44;;;;;;;0.70;0.70;;;0.10;99.90;;;;;;5071682;28;20199;-72
2023/12/22 01:38:10;;;;;;;0.70;0.70;;;0.10;99.90;;;;;;5090248;28;20543;-72
2023/12/22 01:40:41;;;;;;;0.68;0.68;;;0.10;99.90;;;;;;5074250;28;20663;-71
2023/12/22 01:43:06;;;;;;;0.70;0.70;;;0.10;99.90;;;;;;5090109;28;20192;-71
2023/12/22 01:46:19;;;;;;;0.80;0.80;;;0.10;99.90;;;;;;5072126;28;20202;-72
2023/12/22 01:48:45;;;;;;;0.65;0.65;;;0.10;99.90;;;;;;5089680;28;20552;-72
2023/12/22 01:52:02;;;;;;;0.80;0.80;;;0.00;99.90;;;;;;5092839;28;20192;-75
2023/12/22 01:55:11;;;;;;;0.60;0.60;;;0.10;99.90;;;;;;5028928;28;20206;-73
2023/12/22 01:58:04;;;;;;;0.70;0.70;;;0.10;99.90;;;;;;4968971;28;20306;-73
2023/12/22 02:00:29;;;;;;;0.65;0.65;;;0.00;99.90;;;;;;5023646;28;20302;-72
2023/12/22 02:02:55;;;;;;;0.80;0.80;;;0.00;99.90;;;;;;5029920;28;20292;-73
2023/12/22 02:05:21;;;;;;;0.70;0.70;;;0.00;99.90;;;;;;5082507;28;20234;-70
2023/12/22 02:07:46;;;;;;;0.75;0.75;;;0.10;99.90;;;;;;5089441;28;20227;-71
2023/12/22 02:10:12;;;;;;;0.65;0.65;;;0.00;99.90;;;;;;5099301;28;20230;-70
2023/12/22 02:12:38;;;;;;;0.77;0.77;;;0.00;99.90;;;;;;5109499;28;20195;-73
2023/12/22 02:15:05;;;;;;;0.70;0.70;;;0.00;99.90;;;;;;5085797;28;20189;-73
2023/12/22 02:18:04;;;;;;;0.70;0.70;;;0.10;99.90;;;;;;5068149;28;20621;-73
2023/12/22 02:20:31;;;;;;;0.73;0.73;;;0.00;99.90;;;;;;5050455;28;20205;-73
2023/12/22 02:22:57;;;;;;;0.60;0.60;;;0.00;99.90;;;;;;5068789;28;20188;-71
2023/12/22 02:25:23;;;;;;;0.52;0.52;;;0.00;99.90;;;;;;5068958;28;20193;-71
2023/12/22 02:27:50;;;;;;;0.70;0.70;;;0.00;99.90;;;;;;5069200;28;20216;-71
2023/12/22 02:30:28;;;;;;;0.70;0.70;;;0.10;99.90;;;;;;5088685;28;20220;-70
2023/12/22 02:32:58;;;;;;;0.70;0.70;;;0.10;99.90;;;;;;5089072;28;20219;-71
2023/12/22 02:35:27;;;;;;;0.60;0.60;;;0.10;99.90;;;;;;5070757;28;20753;-71
2023/12/22 02:37:56;;;;;;;0.68;0.68;;;0.10;99.90;;;;;;5089249;28;20199;-70
2023/12/22 02:40:23;;;;;;;0.65;0.65;;;0.10;99.90;;;;;;5089096;28;20211;-70
2023/12/22 02:42:49;;;;;;;0.60;0.60;;;0.10;99.90;;;;;;5089179;28;20639;-71
2023/12/22 02:45:17;;;;;;;0.60;0.60;;;0.10;99.90;;;;;;5089074;28;20191;-73
2023/12/22 02:47:43;;;;;;;0.60;0.60;;;0.00;99.90;;;;;;5070668;28;20671;-73
2023/12/22 02:50:09;;;;;;;0.60;0.60;;;0.10;99.90;;;;;;5089256;28;20200;-73
2023/12/22 02:52:35;;;;;;;0.70;0.70;;;0.10;99.90;;;;;;5070219;28;20196;-73
2023/12/22 02:55:02;;;;;;;0.63;0.63;;;0.10;99.90;;;;;;5088846;28;20999;-72
2023/12/22 02:57:27;;;;;;;0.80;0.80;;;0.00;99.90;;;;;;5088968;28;20663;-73
2023/12/22 02:59:53;;;;;;;0.70;0.70;;;0.10;99.90;;;;;;5088775;28;20207;-73
2023/12/22 03:02:19;;;;;;;0.80;0.80;;;0.10;99.90;;;;;;5088549;28;20196;-73
2023/12/22 03:04:46;;;;;;;0.73;0.73;;;0.10;99.90;;;;;;5070424;28;20656;-73
2023/12/22 03:07:12;;;;;;;0.65;0.65;;;0.00;99.90;;;;;;5101059;28;20271;-73
2023/12/22 03:09:38;;;;;;;0.73;0.73;;;0.00;99.90;;;;;;5097061;28;20208;-73
2023/12/22 03:12:04;;;;;;;0.70;0.70;;;0.00;99.90;;;;;;5068288;28;20719;-73
2023/12/22 03:14:33;;;;;;;0.70;0.70;;;0.00;99.90;;;;;;5071869;28;20204;-73
2023/12/22 03:16:59;;;;;;;0.70;0.70;;;0.00;99.90;;;;;;5088942;28;20283;-70
2023/12/22 03:19:25;;;;;;;0.70;0.70;;;0.00;99.90;;;;;;5088358;28;20200;-73
2023/12/22 03:21:50;;;;;;;0.70;0.70;;;0.00;99.90;;;;;;5088544;28;20709;-73
2023/12/22 03:24:18;;;;;;;0.70;0.70;;;-0.10;99.90;;;;;;5088214;28;20203;-73
2023/12/22 03:26:44;;;;;;;0.80;0.80;;;-0.10;99.90;;;;;;5088602;28;20196;-73
2023/12/22 03:29:09;;;;;;;0.80;0.80;;;-0.10;99.90;;;;;;5085220;28;20563;-73
2023/12/22 03:31:35;;;;;;;1.05;1.05;;;-0.10;99.90;;;;;;5072366;28;20580;-73
2023/12/22 03:34:01;;;;;;;0.73;0.73;;;-0.10;99.90;;;;;;5092738;28;20196;-73
2023/12/22 03:36:27;;;;;;;0.68;0.68;;;-0.10;99.90;;;;;;5092369;28;20196;-72
2023/12/22 03:38:52;;;;;;;0.70;0.70;;;-0.20;99.90;;;;;;5092294;28;20682;-70
2023/12/22 03:41:18;;;;;;;0.80;0.80;;;-0.10;99.90;;;;;;5092243;28;20651;-70
2023/12/22 03:43:44;;;;;;;0.65;0.65;;;-0.10;99.90;;;;;;5092356;28;20196;-72
2023/12/22 03:46:09;;;;;;;0.70;0.70;;;-0.20;99.90;;;;;;5092233;28;20196;-72
2023/12/22 03:48:35;;;;;;;0.73;0.73;;;-0.20;99.90;;;;;;5056031;28;20699;-73
2023/12/22 03:51:01;;;;;;;0.75;0.75;;;-0.20;99.90;;;;;;5072088;28;20216;-73
2023/12/22 03:53:26;;;;;;;0.80;0.80;;;-0.20;99.90;;;;;;5071967;28;20227;-70
2023/12/22 03:55:52;;;;;;;0.75;0.75;;;-0.20;99.90;;;;;;5071767;28;20196;-72
2023/12/22 03:58:18;;;;;;;2.85;1.85;;;-0.20;99.90;;;;;;5071724;28;20193;-73
2023/12/22 04:00:43;;;;;;;0.80;0.80;;;-0.20;99.90;;;;;;5071589;28;20215;-72
2023/12/22 04:03:09;;;;;;;0.80;0.80;;;-0.20;99.90;;;;;;5095846;28;20208;-71
2023/12/22 04:05:35;;;;;;;0.60;0.60;;;-0.20;99.90;;;;;;5091416;28;20224;-72
2023/12/22 04:08:00;;;;;;;0.60;0.60;;;-0.20;99.90;;;;;;5076298;28;20204;-71
2023/12/22 04:10:26;;;;;;;0.80;0.80;;;-0.20;99.90;;;;;;5083874;28;20219;-71
2023/12/22 04:12:52;;;;;;;0.80;0.80;;;-0.20;99.90;;;;;;5091709;28;20241;-72
2023/12/22 04:15:17;;;;;;;0.70;0.70;;;-0.20;99.90;;;;;;5073033;28;20239;-69
2023/12/22 04:17:43;;;;;;;0.77;0.77;;;-0.20;99.90;;;;;;5091493;28;20196;-69
2023/12/22 04:20:09;;;;;;;0.65;0.65;;;-0.20;99.90;;;;;;5091616;28;20212;-71
2023/12/22 04:22:34;;;;;;;0.68;0.68;;;-0.10;99.90;;;;;;5072748;28;20204;-69
2023/12/22 04:25:00;;;;;;;0.80;0.80;;;-0.10;99.90;;;;;;5091821;28;20812;-69
2023/12/22 04:27:26;;;;;;;0.70;0.70;;;-0.10;99.90;;;;;;5091347;28;20235;-70
2023/12/22 04:29:51;;;;;;;0.77;0.77;;;-0.10;99.90;;;;;;5091558;28;20219;-70
2023/12/22 04:32:17;;;;;;;0.60;0.60;;;-0.10;99.90;;;;;;5091191;28;20563;-70
2023/12/22 04:34:43;;;;;;;0.80;0.80;;;-0.10;99.90;;;;;;5091139;28;20188;-70
2023/12/22 04:37:09;;;;;;;1.58;1.10;;;-0.10;99.90;;;;;;5091400;28;20669;-69
2023/12/22 04:39:35;;;;;;;0.65;0.65;;;-0.10;99.90;;;;;;5090589;28;20675;-70
2023/12/22 04:42:00;;;;;;;0.70;0.70;;;-0.10;99.90;;;;;;5091092;28;20284;-69
2023/12/22 04:44:26;;;;;;;0.70;0.70;;;-0.10;99.90;;;;;;5090727;28;20204;-69
2023/12/22 04:46:52;;;;;;;0.70;0.70;;;-0.10;99.90;;;;;;5091124;28;20218;-69
2023/12/22 04:49:18;;;;;;;0.73;0.73;;;-0.10;99.90;;;;;;5090861;28;20328;-71
2023/12/22 04:51:44;;;;;;;0.65;0.65;;;-0.10;99.90;;;;;;5072649;28;20231;-70
2023/12/22 04:54:09;;;;;;;0.80;0.80;;;-0.10;99.90;;;;;;5091330;28;20643;-70
2023/12/22 04:56:35;;;;;;;0.70;0.70;;;0.00;99.90;;;;;;5090808;28;20196;-69
2023/12/22 04:59:00;;;;;;;0.70;0.70;;;0.00;99.90;;;;;;5101713;28;20212;-71
2023/12/22 05:01:26;;;;;;;0.70;0.70;;;0.00;99.90;;;;;;5111084;28;20774;-69
2023/12/22 05:03:53;;;;;;;0.63;0.63;;;0.00;99.90;;;;;;5098799;28;20215;-70
2023/12/22 05:06:20;;;;;;;1.10;1.08;;;0.00;99.90;;;;;;5090686;28;20216;-70
2023/12/22 05:08:46;;;;;;;0.82;0.82;;;0.00;99.90;;;;;;5072290;28;20709;-69
2023/12/22 05:11:12;;;;;;;0.77;0.77;;;0.00;99.90;;;;;;5090345;28;20288;-70
2023/12/22 05:13:37;;;;;;;0.60;0.60;;;0.00;99.90;;;;;;5090343;28;20997;-70
2023/12/22 05:16:04;;;;;;;0.73;0.73;;;0.00;99.90;;;;;;5090805;28;20195;-70
2023/12/22 05:18:30;;;;;;;0.65;0.65;;;0.00;99.90;;;;;;5071820;28;20258;-70
2023/12/22 05:20:56;;;;;;;0.60;0.60;;;-0.10;99.90;;;;;;5090580;28;20200;-69
2023/12/22 05:23:21;;;;;;;0.70;0.70;;;-0.10;99.90;;;;;;5090291;28;20614;-69
2023/12/22 05:25:47;;;;;;;0.80;0.80;;;-0.10;99.90;;;;;;5090365;28;20203;-69
2023/12/22 05:28:13;;;;;;;0.60;0.60;;;0.00;99.90;;;;;;5090305;28;20207;-69
2023/12/22 05:30:38;;;;;;;0.70;0.70;;;0.00;99.90;;;;;;5089977;28;20637;-69
2023/12/22 05:33:04;;;;;;;0.82;0.82;;;0.00;99.90;;;;;;5089518;28;20295;-69
2023/12/22 05:35:30;;;;;;;0.70;0.70;;;0.00;99.90;;;;;;5089916;28;20712;-69
2023/12/22 05:37:55;;;;;;;1.30;0.85;;;0.00;99.90;;;;;;5090574;28;20367;-69
2023/12/22 05:40:21;;;;;;;0.90;0.90;;;0.00;99.90;;;;;;5089882;28;20699;-69
2023/12/22 05:42:47;;;;;;;0.70;0.70;;;0.00;99.90;;;;;;5090029;28;20277;-69
2023/12/22 05:45:13;;;;;;;0.70;0.70;;;0.00;99.90;;;;;;5089863;28;20278;-69
2023/12/22 05:47:39;;;;;;;0.80;0.80;;;0.00;99.90;;;;;;5089872;28;20203;-70
2023/12/22 05:50:05;;;;;;;0.65;0.65;;;0.00;99.90;;;;;;5089648;28;20203;-69
2023/12/22 05:52:31;;;;;;;0.80;0.80;;;0.00;99.90;;;;;;5088760;28;20648;-69
2023/12/22 05:54:57;;;;;;;0.70;0.70;;;-0.10;99.90;;;;;;5097880;28;20200;-71
2023/12/22 05:57:24;;;;;;;1.20;1.17;;;0.00;99.90;;;;;;5109980;28;20187;-71
2023/12/22 05:59:50;;;;;;;0.70;0.70;;;-0.10;99.90;;;;;;5081734;28;20202;-71
2023/12/22 06:02:16;;;;;;;0.70;0.70;;;-0.10;99.90;;;;;;5089685;28;20200;-72
2023/12/22 06:04:41;;;;;;;0.70;0.70;;;-0.10;99.90;;;;;;5071511;28;20193;-72
2023/12/22 06:07:07;;;;;;;1.15;1.05;;;-0.10;99.90;;;;;;5089571;28;20564;-69
2023/12/22 06:09:32;;;;;;;0.65;0.65;;;-0.20;99.90;;;;;;5070722;28;20207;-71
2023/12/22 06:11:58;;;;;;;0.70;0.70;;;-0.20;99.90;;;;;;5089683;28;20196;-71
2023/12/22 06:14:24;;;;;;;0.70;0.70;;;-0.20;99.90;;;;;;5089308;28;20203;-69
2023/12/22 06:16:50;;;;;;;0.70;0.70;;;-0.30;99.90;;;;;;5089707;28;20195;-71
2023/12/22 06:19:16;;;;;;;0.70;0.70;;;-0.20;99.90;;;;;;5089446;28;20200;-73
2023/12/22 06:21:42;;;;;;;0.80;0.80;;;-0.20;99.90;;;;;;5089272;28;20226;-73
2023/12/22 06:24:08;;;;;;;0.60;0.60;;;-0.20;99.90;;;;;;5080957;28;20723;-73
2023/12/22 06:26:34;;;;;;;0.80;0.80;;;-0.20;99.90;;;;;;5089282;28;20659;-73
2023/12/22 06:28:59;;;;;;;0.60;0.60;;;-0.20;99.90;;;;;;5089025;28;20249;-70
2023/12/22 06:31:25;;;;;;;0.70;0.70;;;-0.20;99.90;;;;;;5089004;28;20261;-73
2023/12/22 06:33:51;;;;;;;0.60;0.60;;;-0.20;99.90;;;;;;5089059;28;20763;-73
2023/12/22 06:36:25;;;;;;;0.70;0.70;;;-0.20;99.90;;;;;;5079831;28;20287;-73
2023/12/22 06:38:51;;;;;;;0.60;0.60;;;-0.30;99.90;;;;;;5068884;28;20231;-73
2023/12/22 06:41:24;;;;;;;0.70;0.70;;;-0.20;99.90;;;;;;5068824;28;20275;-73
2023/12/22 06:43:50;;;;;;;1.08;1.08;;;-0.30;99.90;;;;;;5068550;28;20203;-73
2023/12/22 06:46:22;;;;;;;0.68;0.68;;;-0.20;99.90;;;;;;5068886;28;20211;-71
2023/12/22 06:48:48;;;;;;;0.57;0.57;;;-0.20;99.90;;;;;;5068857;28;20197;-73
2023/12/22 06:51:25;;;;;;;0.60;0.60;;;-0.30;99.90;;;;;;5085764;28;20211;-73
2023/12/22 06:53:51;;;;;;;0.70;0.70;;;-0.30;99.90;;;;;;5109279;28;20191;-73
2023/12/22 06:56:18;;;;;;;0.75;0.75;;;-0.30;99.90;;;;;;5085941;28;20200;-70
2023/12/22 06:58:46;;;;;;;0.60;0.60;;;-0.30;99.90;;;;;;5068472;28;20230;-70
2023/12/22 07:01:12;;;;;;;0.65;0.65;;;-0.30;99.90;;;;;;5068624;28;20188;-70
2023/12/22 07:03:38;;;;;;;0.60;0.60;;;-0.30;99.90;;;;;;5070019;28;20215;-70
2023/12/22 07:06:04;;;;;;;0.63;0.63;;;-0.20;99.90;;;;;;5072611;28;20704;-73
2023/12/22 07:08:30;;;;;;;1.15;1.15;;;-0.30;99.90;;;;;;5072662;28;20196;-73
2023/12/22 07:10:55;;;;;;;1.02;0.98;;;-0.20;99.90;;;;;;5089331;28;20392;-73
2023/12/22 07:13:21;;;;;;;0.80;0.80;;;-0.30;99.90;;;;;;5092906;28;20219;-73
2023/12/22 07:15:47;;;;;;;0.80;0.80;;;-0.30;99.90;;;;;;5092911;28;20624;-72
2023/12/22 07:18:13;;;;;;;0.60;0.60;;;-0.30;99.90;;;;;;5092369;28;20200;-73
2023/12/22 07:20:39;;;;;;;1.27;1.20;;;-0.30;99.90;;;;;;5092711;28;20196;-73
2023/12/22 07:23:04;;;;;;;0.90;0.90;;;-0.30;99.90;;;;;;5092522;28;20689;-73
2023/12/22 07:25:36;;;;;;;0.77;0.77;;;-0.40;99.90;;;;;;5092479;28;20196;-73
2023/12/22 07:28:01;;;;;;;1.00;1.00;;;-0.30;99.90;;;;;;5092879;28;20192;-73
2023/12/22 07:30:27;;;;;;;0.70;0.70;;;-0.30;99.90;;;;;;5092625;28;20260;-69
2023/12/22 07:32:53;;;;;;;0.80;0.80;;;-0.30;99.90;;;;;;5080157;28;20691;-71
2023/12/22 07:35:19;;;;;;;0.80;0.80;;;-0.40;99.90;;;;;;5072042;28;20189;-67
2023/12/22 07:37:44;;;;;;;0.93;0.93;;;-0.30;99.90;;;;;;5054145;28;20196;-68
2023/12/22 07:40:11;;;;;;;0.70;0.70;;;-0.30;99.90;;;;;;5072188;28;20204;-68
2023/12/22 07:42:37;;;;;;;1.15;1.08;;;-0.30;99.90;;;;;;5071918;28;20201;-68
2023/12/22 07:45:04;;;;;;;0.98;0.98;;;-0.30;99.90;;;;;;5053854;28;20208;-68
2023/12/22 07:47:30;;;;;;;0.80;0.80;;;-0.30;99.90;;;;;;5054395;28;20211;-68
2023/12/22 07:49:56;;;;;;;0.80;0.80;;;-0.40;99.90;;;;;;5112472;28;20222;-68
2023/12/22 07:52:21;;;;;;;0.70;0.70;;;-0.40;99.90;;;;;;5076498;28;20224;-70
2023/12/22 07:54:47;;;;;;;0.70;0.70;;;-0.30;99.90;;;;;;5071974;28;20246;-70
2023/12/22 07:57:13;;;;;;;0.60;0.60;;;-0.30;99.90;;;;;;5071828;28;20200;-70
2023/12/22 07:59:38;;;;;;;0.70;0.70;;;-0.40;99.90;;;;;;5071676;28;20321;-70
2023/12/22 08:02:04;;;;;;;0.75;0.75;;;-0.40;99.90;;;;;;5071578;28;20584;-69
2023/12/22 08:04:30;;;;;;;0.70;0.70;;;-0.40;99.90;;;;;;5072025;28;20534;-70
2023/12/22 08:06:56;;;;;;;1.33;1.23;;;-0.50;99.90;;;;;;5084629;28;20235;-71
2023/12/22 08:09:22;;;;;;;0.65;0.65;;;-0.40;99.90;;;;;;5091399;28;20188;-68
2023/12/22 08:11:52;;;;;;;0.65;0.65;;;-0.40;99.90;;;;;;5090717;28;20291;-68
2023/12/22 08:14:21;;;;;;;0.63;0.63;;;-0.40;99.90;;;;;;5073007;28;20675;-68
2023/12/22 08:16:46;;;;;;;0.90;0.90;;;-0.50;99.90;;;;;;5091312;28;20196;-69
2023/12/22 08:19:12;;;;;;;0.80;0.80;;;-0.50;99.90;;;;;;5091643;28;20206;-68
2023/12/22 08:21:37;;;;;;;0.70;0.70;;;-0.50;99.90;;;;;;5091587;28;20343;-69
2023/12/22 08:24:03;;;;;;;0.70;0.70;;;-0.50;99.90;;;;;;5073359;28;20200;-68
2023/12/22 08:26:29;;;;;;;0.60;0.60;;;-0.50;99.90;;;;;;5091375;28;20204;-69
2023/12/22 08:28:55;;;;;;;1.13;1.02;;;-0.50;99.90;;;;;;5091118;28;20309;-68
2023/12/22 08:31:20;;;;;;;0.57;0.57;;;-0.60;99.90;;;;;;5090957;28;20192;-69
2023/12/22 08:33:47;;;;;;;0.80;0.80;;;-0.60;99.90;;;;;;5073198;28;20314;-68
2023/12/22 08:36:13;;;;;;;0.70;0.70;;;-0.60;99.90;;;;;;5091184;28;20211;-69
2023/12/22 08:38:40;;;;;;;0.63;0.63;;;-0.50;99.90;;;;;;5072956;28;20196;-68
2023/12/22 08:41:08;;;;;;;0.75;0.75;;;-0.60;99.90;;;;;;5091324;28;20407;-71
2023/12/22 08:43:34;;;;;;;0.75;0.75;;;-0.50;99.90;;;;;;5098141;28;20437;-70
2023/12/22 08:46:00;;;;;;;0.60;0.60;;;-0.50;99.90;;;;;;5111711;28;20248;-70
2023/12/22 08:48:25;;;;;;;0.80;0.80;;;-0.50;99.90;;;;;;5102457;28;20196;-70
2023/12/22 08:50:51;;;;;;;0.80;0.80;;;-0.50;99.90;;;;;;5090807;28;20208;-70
2023/12/22 08:53:17;;;;;;;0.82;0.82;;;-0.50;99.90;;;;;;5091260;28;20275;-70
2023/12/22 08:55:42;;;;;;;0.80;0.80;;;-0.40;99.90;;;;;;5072540;28;20196;-70
2023/12/22 08:58:08;;;;;;;0.68;0.68;;;-0.40;99.90;;;;;;5090869;28;20274;-70
2023/12/22 09:00:33;;;;;;;0.70;0.70;;;-0.40;99.90;;;;;;5106390;28;20211;-71
2023/12/22 09:02:59;;;;;;;0.80;0.80;;;-0.30;99.90;;;;;;5090678;28;20208;-70
2023/12/22 09:05:25;;;;;;;0.70;0.70;;;-0.30;99.90;;;;;;5090764;28;20239;-69
2023/12/22 09:07:51;;;;;;;0.80;0.80;;;-0.30;99.90;;;;;;5090812;28;20192;-69
2023/12/22 09:10:16;;;;;;;0.70;0.70;;;-0.30;99.90;;;;;;5090496;28;20607;-69
2023/12/22 09:12:42;;;;;;;0.85;0.85;;;-0.30;99.90;;;;;;5090480;28;20185;-70
2023/12/22 09:15:08;;;;;;;0.70;0.70;;;-0.30;99.90;;;;;;5090407;28;20197;-69
2023/12/22 09:17:34;;;;;;;0.70;0.70;;;-0.30;99.90;;;;;;5090522;28;20219;-69
2023/12/22 09:20:00;;;;;;;0.60;0.60;;;-0.30;99.90;;;;;;5090365;28;20192;-70
2023/12/22 09:22:25;;;;;;;0.70;0.70;;;-0.30;99.90;;;;;;5090196;28;20686;-70
2023/12/22 09:24:51;;;;;;;0.70;0.70;;;-0.30;99.90;;;;;;5064272;28;20693;-70
2023/12/22 09:27:17;;;;;;;0.80;0.80;;;-0.20;99.90;;;;;;5080462;28;20216;-70
2023/12/22 09:29:42;;;;;;;0.60;0.60;;;-0.20;99.90;;;;;;5090301;28;20203;-71
2023/12/22 09:32:08;;;;;;;0.70;0.70;;;-0.20;99.90;;;;;;5071805;28;20191;-71
2023/12/22 09:34:34;;;;;;;0.85;0.85;;;-0.20;99.90;;;;;;5090013;28;20195;-71
2023/12/22 09:36:59;;;;;;;1.60;1.50;;;-0.20;99.90;;;;;;5090125;28;20196;-70
2023/12/22 09:39:26;;;;;;;1.55;1.45;;;-0.20;99.90;;;;;;5075552;28;20204;-72
2023/12/22 09:41:52;;;;;;;0.70;0.70;;;-0.20;99.90;;;;;;5110435;28;20188;-69
2023/12/22 09:44:20;;;;;;;0.68;0.68;;;-0.30;99.90;;;;;;5104524;28;20278;-71
2023/12/22 09:46:49;;;;;;;1.08;1.08;;;-0.30;99.90;;;;;;5090092;28;20283;-71
2023/12/22 09:49:17;;;;;;;0.70;0.70;;;-0.30;99.90;;;;;;5089667;28;20222;-72
2023/12/22 09:51:45;;;;;;;0.73;0.73;;;-0.20;99.90;;;;;;5090179;28;20185;-72
2023/12/22 09:54:13;;;;;;;0.70;0.70;;;-0.20;99.90;;;;;;5089573;28;20249;-71
2023/12/22 09:56:42;;;;;;;0.75;0.75;;;-0.20;99.90;;;;;;5089776;28;20227;-74
2023/12/22 09:59:12;;;;;;;0.73;0.73;;;-0.30;99.90;;;;;;5089555;28;20619;-74
2023/12/22 10:01:40;;;;;;;0.80;0.80;;;-0.30;99.90;;;;;;5089880;28;20202;-71
2023/12/22 10:04:05;;;;;;;0.70;0.70;;;-0.30;99.90;;;;;;5089561;28;20208;-71
2023/12/22 10:06:31;;;;;;;0.70;0.70;;;-0.20;99.90;;;;;;5070804;28;20232;-71
2023/12/22 10:08:57;;;;;;;0.70;0.70;;;-0.20;99.90;;;;;;5089020;28;20245;-73
2023/12/22 10:11:24;;;;;;;0.73;0.73;;;-0.20;99.90;;;;;;5089264;28;20202;-73
2023/12/22 10:13:52;;;;;;;0.70;0.70;;;-0.20;99.90;;;;;;5071473;28;20200;-72
2023/12/22 10:16:18;;;;;;;1.15;1.08;;;-0.10;99.90;;;;;;5070781;28;20254;-73
2023/12/22 10:18:44;;;;;;;0.70;0.70;;;-0.10;99.90;;;;;;5089179;28;20614;-74
2023/12/22 10:21:10;;;;;;;0.60;0.60;;;-0.20;99.90;;;;;;5080835;28;20239;-74
2023/12/22 10:23:36;;;;;;;0.70;0.70;;;-0.10;99.90;;;;;;5068766;28;20606;-73
2023/12/22 10:26:01;;;;;;;0.63;0.63;;;-0.10;99.90;;;;;;5069044;28;20208;-73
2023/12/22 10:28:28;;;;;;;1.55;1.45;;;-0.10;99.90;;;;;;5068906;28;20266;-74
2023/12/22 10:30:55;;;;;;;0.93;0.93;;;-0.10;99.90;;;;;;5068692;28;20794;-73
2023/12/22 10:33:21;;;;;;;0.75;0.75;;;-0.10;99.90;;;;;;5068682;28;20582;-73
2023/12/22 10:35:48;;;;;;;0.88;0.88;;;-0.20;99.90;;;;;;5078371;28;20231;-73
2023/12/22 10:38:14;;;;;;;0.77;0.77;;;-0.10;99.90;;;;;;5109031;28;20202;-73
2023/12/22 10:40:40;;;;;;;0.70;0.70;;;-0.10;99.90;;;;;;5102931;28;20225;-73
2023/12/22 10:43:06;;;;;;;0.80;0.80;;;-0.10;99.90;;;;;;5089114;28;20197;-73
2023/12/22 10:45:31;;;;;;;0.60;0.60;;;-0.10;99.90;;;;;;5088787;28;20198;-73
2023/12/22 10:47:59;;;;;;;0.70;0.70;;;-0.10;99.90;;;;;;5070600;28;20200;-76
2023/12/22 10:50:25;;;;;;;0.80;0.80;;;-0.10;99.90;;;;;;5088744;28;20706;-73
2023/12/22 10:52:51;;;;;;;0.80;0.80;;;-0.10;99.90;;;;;;5088939;28;20235;-73
2023/12/22 10:55:17;;;;;;;0.80;0.80;;;-0.10;99.90;;;;;;5088946;28;20231;-73
2023/12/22 10:57:48;;;;;;;0.80;0.80;;;-0.10;99.90;;;;;;5088901;28;20196;-73
2023/12/22 11:00:19;;;;;;;0.50;0.50;;;-0.10;99.90;;;;;;5089277;28;20241;-74
2023/12/22 11:02:48;;;;;;;0.70;0.70;;;-0.10;99.90;;;;;;5088980;28;20808;-73
2023/12/22 11:05:17;;;;;;;0.80;0.80;;;0.00;99.90;;;;;;5088571;28;20236;-73
2023/12/22 11:07:48;;;;;;;0.80;0.80;;;-0.10;99.90;;;;;;5088796;28;20670;-73
2023/12/22 11:10:19;;;;;;;0.80;0.80;;;-0.10;99.90;;;;;;5088387;28;20572;-73
2023/12/22 11:12:47;;;;;;;1.33;1.23;;;0.00;99.90;;;;;;5088763;28;20188;-73
2023/12/22 11:15:13;;;;;;;0.70;0.70;;;0.00;99.90;;;;;;5069942;28;20200;-73
2023/12/22 11:17:41;;;;;;;0.65;0.65;;;0.00;99.90;;;;;;5077560;28;20300;-73
2023/12/22 11:20:10;;;;;;;0.70;0.70;;;-0.10;99.90;;;;;;5050201;28;20212;-73
2023/12/22 11:22:36;;;;;;;0.70;0.70;;;0.00;99.90;;;;;;5068046;28;20285;-73
2023/12/22 11:25:04;;;;;;;0.98;0.98;;;0.00;99.90;;;;;;5067936;28;20201;-73
2023/12/22 11:27:33;;;;;;;0.65;0.65;;;-0.10;99.90;;;;;;5049599;28;20200;-73
2023/12/22 11:30:01;;;;;;;0.63;0.63;;;-0.10;99.90;;;;;;5068048;28;20202;-72
2023/12/22 11:32:28;;;;;;;0.70;0.70;;;0.00;99.90;;;;;;5083698;28;20203;-73
2023/12/22 11:34:56;;;;;;;0.70;0.70;;;-0.10;99.90;;;;;;5108663;28;20194;-73
2023/12/22 11:37:22;;;;;;;0.60;0.60;;;0.00;99.90;;;;;;5098126;28;20196;-72
2023/12/22 11:39:48;;;;;;;0.70;0.70;;;-0.10;99.90;;;;;;5087784;28;20191;-73
2023/12/22 11:42:31;;;;;;;0.70;0.70;;;0.00;99.90;;;;;;5069640;28;20223;-72
2023/12/22 11:44:57;;;;;;;0.60;0.60;;;0.00;99.90;;;;;;5070239;28;20215;-72
2023/12/22 11:47:23;;;;;;;0.63;0.63;;;0.00;99.90;;;;;;5070104;28;20210;-72
2023/12/22 11:49:52;;;;;;;0.90;0.90;;;0.00;99.90;;;;;;5088669;28;20283;-73
2023/12/22 11:52:24;;;;;;;0.60;0.60;;;0.00;99.90;;;;;;5091928;28;20660;-73
2023/12/22 11:54:54;;;;;;;0.70;0.70;;;0.00;99.90;;;;;;5092292;28;20184;-73
2023/12/22 11:57:31;;;;;;;0.70;0.70;;;0.00;99.90;;;;;;5092018;28;20268;-73
2023/12/22 11:59:58;;;;;;;0.70;0.70;;;0.00;99.90;;;;;;5091957;28;20195;-72
2023/12/22 12:02:24;;;;;;;0.55;0.55;;;0.00;99.90;;;;;;5091855;28;20204;-73
2023/12/22 12:04:53;;;;;;;0.80;0.80;;;0.00;99.90;;;;;;5088357;28;20252;-73
2023/12/22 12:07:45;;;;;;;0.75;0.75;;;0.00;99.90;;;;;;5091738;28;20239;-73
2023/12/22 12:10:33;;;;;;;0.60;0.60;;;0.00;99.90;;;;;;5080642;28;20208;-72
2023/12/22 12:13:09;;;;;;;0.70;0.70;;;0.00;99.90;;;;;;5073624;28;20201;-73
2023/12/22 12:15:36;;;;;;;0.80;0.80;;;0.00;99.90;;;;;;5090226;28;20303;-73
2023/12/22 12:18:03;;;;;;;0.80;0.80;;;0.00;99.90;;;;;;5091845;28;20743;-72
2023/12/22 12:20:29;;;;;;;0.80;0.80;;;-0.10;99.90;;;;;;5091541;28;20738;-71
2023/12/22 12:22:55;;;;;;;0.80;0.80;;;-0.10;99.90;;;;;;5091519;28;20192;-73
2023/12/22 12:25:29;;;;;;;0.70;0.70;;;-0.10;99.90;;;;;;5091456;28;20203;-73
2023/12/22 12:28:05;;;;;;;0.80;0.80;;;0.00;99.90;;;;;;5091588;28;20615;-74
2023/12/22 12:30:31;;;;;;;0.70;0.70;;;-0.10;99.90;;;;;;5091209;28;20210;-73
2023/12/22 12:33:05;;;;;;;0.70;0.70;;;-0.10;99.90;;;;;;5091281;28;20739;-72
2023/12/22 12:35:32;;;;;;;0.60;0.60;;;-0.10;99.90;;;;;;5091312;28;20188;-73
2023/12/22 12:37:59;;;;;;;1.42;1.33;;;-0.20;99.90;;;;;;5091550;28;20249;-73
2023/12/22 12:40:29;;;;;;;0.80;0.80;;;-0.20;99.90;;;;;;5091502;28;20206;-72
2023/12/22 12:42:56;;;;;;;0.70;0.70;;;-0.20;99.90;;;;;;5089719;28;20681;-73
2023/12/22 12:45:25;;;;;;;0.80;0.80;;;-0.20;99.90;;;;;;5091121;28;20196;-73
2023/12/22 12:48:03;;;;;;;0.90;0.90;;;-0.20;99.90;;;;;;5091162;28;20200;-73
2023/12/22 12:50:31;;;;;;;0.70;0.70;;;-0.20;99.90;;;;;;5090834;28;20258;-72
2023/12/22 12:52:56;;;;;;;0.70;0.70;;;-0.20;99.90;;;;;;5090981;28;20262;-73
2023/12/22 12:55:24;;;;;;;0.65;0.65;;;-0.20;99.90;;;;;;5091065;28;20223;-72
2023/12/22 12:57:51;;;;;;;0.73;0.73;;;-0.30;99.90;;;;;;5089224;28;20192;-72